Pagrindinis puslapis
METAR-TAF:

METAR-TAF

Oro uostai :

Džohor Baru, Malaizija

platuma: 01-38N, ilguma: 103-40E, Aukštis: 37 m

Dabartinis oras

Ataskaita buvo paskelbta 1 valandą ir 4 minutes, ne 04:00 UTC
Vėjas 9 kt nuo kintamojo kryptimis
Temperatūra 32°C
Drėgmė 63%
Slėgis 1010 hPa
Matomumas 10 km arba daugiau
Mažai debesys ne aukštis 1800 ft

METAR: WMKJ 290400Z VRB09KT 9999 FEW018 32/24 Q1010

Laikas: 13:04 (05:04 UTC)

Prognozė

Ataskaita buvo paskelbta 6 valandos ir 4 minutes, ne 23:00 UTC
Prognozė galioja nuo 29 metu 00 UTC su 01 metu 00 UTC
Vėjas 9 kt iš Rytų/Šiaurės Rytų
Matomumas 10 km arba daugiau
Mažai debesys ne aukštis 1800 ft

TAF: WMKJ 282300Z 2900/0100 06009KT 9999 FEW018

Orai ataskaitas ir orų prognozės (METAR, TAF).

turimą stotys yra geltonos ir raudonos taškus žemėlapyje.

Perkelti pele per norėdami pamatyti stoties vardą.

Tada spustelėkite, norėdami matyti oro stebėjimo ir prognozės.

Norėdami pakeisti žemėlapį: spustelėkite ant žalios mygtukų su juodo kryžiaus žemyn,; žalią mygtuką su brūkšneliu, jei norite nutolinti; arba žalių rodyklių gretimoms žemėlapius.


METAR-TAF: